createdAt,value
2018-06-22T00:00:33.205Z,15.00
2018-06-22T00:03:00.614Z,15.00
2018-06-22T00:05:28.018Z,15.30
2018-06-22T00:07:55.445Z,15.10
2018-06-22T00:10:22.898Z,15.10
2018-06-22T00:12:50.337Z,15.10
2018-06-22T00:15:17.703Z,15.10
2018-06-22T00:17:45.136Z,15.20
2018-06-22T00:20:12.683Z,15.10
2018-06-22T00:22:40.429Z,15.10
2018-06-22T00:25:07.859Z,15.10
2018-06-22T00:27:35.261Z,15.10
2018-06-22T00:30:02.824Z,15.10
2018-06-22T00:32:30.383Z,15.10
2018-06-22T00:34:57.779Z,15.20
2018-06-22T00:37:25.263Z,15.20
2018-06-22T00:39:52.818Z,15.40
2018-06-22T00:42:20.208Z,15.20
2018-06-22T00:44:47.642Z,15.20
2018-06-22T00:47:15.201Z,15.20
2018-06-22T00:49:42.621Z,15.10
2018-06-22T00:52:10.200Z,15.10
2018-06-22T00:54:37.676Z,15.00
2018-06-22T00:57:05.201Z,15.00
2018-06-22T00:59:32.611Z,14.90
2018-06-22T01:02:00.088Z,14.90
2018-06-22T01:04:27.605Z,15.00
2018-06-22T01:06:55.166Z,14.90
2018-06-22T01:09:22.674Z,14.80
2018-06-22T01:11:50.146Z,14.80
2018-06-22T01:14:17.858Z,14.70
2018-06-22T01:16:45.347Z,14.70
2018-06-22T01:19:12.819Z,14.70
2018-06-22T01:24:08.364Z,14.70
2018-06-22T01:26:35.768Z,14.70
2018-06-22T01:29:08.858Z,14.70
2018-06-22T01:31:36.329Z,14.70
2018-06-22T01:34:03.998Z,14.60
2018-06-22T01:36:31.419Z,14.70
2018-06-22T01:38:58.838Z,14.60
2018-06-22T01:41:26.280Z,14.60
2018-06-22T01:43:53.774Z,14.50
2018-06-22T01:46:21.402Z,14.50
2018-06-22T01:48:49.386Z,14.50
2018-06-22T01:51:16.812Z,14.50
2018-06-22T01:53:44.397Z,14.60
2018-06-22T01:56:11.868Z,14.60
2018-06-22T01:58:39.350Z,14.50
2018-06-22T02:01:06.898Z,14.50
2018-06-22T02:03:34.579Z,14.50
2018-06-22T02:06:02.030Z,14.50
2018-06-22T02:08:29.505Z,14.50
2018-06-22T02:10:56.988Z,14.40
2018-06-22T02:13:24.395Z,14.40
2018-06-22T02:15:52.044Z,14.40
2018-06-22T02:18:19.897Z,14.40
2018-06-22T02:20:47.389Z,14.40
2018-06-22T02:23:14.933Z,14.40
2018-06-22T02:25:42.355Z,14.40
2018-06-22T02:28:09.822Z,14.30
2018-06-22T02:30:37.385Z,14.20
2018-06-22T02:33:04.860Z,14.30
2018-06-22T02:35:32.326Z,14.30
2018-06-22T02:37:59.737Z,14.30
2018-06-22T02:40:27.171Z,14.30
2018-06-22T02:42:54.610Z,14.20
2018-06-22T02:45:22.124Z,14.30
2018-06-22T02:47:49.571Z,14.20
2018-06-22T02:52:44.479Z,14.20
2018-06-22T02:55:11.889Z,14.20
2018-06-22T02:57:39.457Z,14.20
2018-06-22T03:00:07.073Z,14.30
2018-06-22T03:02:34.550Z,14.20
2018-06-22T03:05:01.991Z,14.20
2018-06-22T03:07:29.516Z,14.30
2018-06-22T03:09:56.936Z,14.30
2018-06-22T03:12:24.406Z,14.20
2018-06-22T03:14:51.874Z,14.20
2018-06-22T03:17:19.370Z,14.20
2018-06-22T03:19:46.833Z,14.20
2018-06-22T03:22:14.235Z,14.20
2018-06-22T03:24:41.734Z,14.10
2018-06-22T03:29:36.619Z,14.20
2018-06-22T03:32:04.852Z,14.20
2018-06-22T03:34:32.283Z,14.20
2018-06-22T03:36:59.746Z,14.20
2018-06-22T03:39:27.340Z,14.30
2018-06-22T03:41:54.760Z,14.20
2018-06-22T03:44:22.283Z,14.20
2018-06-22T03:46:49.914Z,14.20
2018-06-22T03:49:17.364Z,14.20
2018-06-22T03:51:44.849Z,14.20
2018-06-22T03:54:12.349Z,14.20
2018-06-22T03:56:39.853Z,14.20
2018-06-22T03:59:07.470Z,14.10
2018-06-22T04:01:34.926Z,13.90
2018-06-22T04:04:02.350Z,14.10
2018-06-22T04:06:29.899Z,14.10
2018-06-22T04:08:57.333Z,14.10
2018-06-22T04:11:24.983Z,14.10
2018-06-22T04:13:52.832Z,14.00
2018-06-22T04:16:20.292Z,14.00
2018-06-22T04:21:15.329Z,14.10
2018-06-22T04:23:42.818Z,14.10
2018-06-22T04:26:10.289Z,14.10
2018-06-22T04:28:37.794Z,14.10
2018-06-22T04:31:05.321Z,14.10
2018-06-22T04:33:32.935Z,14.10
2018-06-22T04:36:00.406Z,14.10
2018-06-22T04:38:27.923Z,14.10
2018-06-22T04:40:55.363Z,14.10
2018-06-22T04:43:22.866Z,14.20
2018-06-22T04:45:50.419Z,14.10
2018-06-22T04:48:17.865Z,14.10
2018-06-22T04:50:45.404Z,14.20
2018-06-22T04:53:12.864Z,14.20
2018-06-22T04:55:40.328Z,14.20
2018-06-22T04:58:07.757Z,14.00
2018-06-22T05:00:35.257Z,14.30
2018-06-22T05:03:02.753Z,14.30
2018-06-22T05:05:30.187Z,14.30
2018-06-22T05:07:57.666Z,14.30
2018-06-22T05:10:25.141Z,14.40
2018-06-22T05:12:52.616Z,14.30
2018-06-22T05:15:20.107Z,14.30
2018-06-22T05:17:47.627Z,14.40
2018-06-22T05:20:15.099Z,14.40
2018-06-22T05:22:42.589Z,14.40
2018-06-22T05:25:10.015Z,14.50
2018-06-22T05:27:37.942Z,14.40
2018-06-22T05:30:05.514Z,14.40
2018-06-22T05:32:33.188Z,14.40
2018-06-22T05:35:00.609Z,14.40
2018-06-22T05:37:28.051Z,14.40
2018-06-22T05:39:55.502Z,14.40
2018-06-22T05:44:50.369Z,14.40
2018-06-22T05:47:17.825Z,14.40
2018-06-22T05:49:45.283Z,14.50
2018-06-22T05:52:12.809Z,14.50
2018-06-22T05:54:40.246Z,14.40
2018-06-22T05:57:07.646Z,14.40
2018-06-22T05:59:35.070Z,14.40
2018-06-22T06:02:02.604Z,14.30
2018-06-22T06:04:30.182Z,14.40
2018-06-22T06:06:57.650Z,14.40
2018-06-22T06:09:25.202Z,14.40
2018-06-22T06:11:52.679Z,14.40
2018-06-22T06:14:20.222Z,14.50
2018-06-22T06:16:47.800Z,14.50
2018-06-22T06:19:15.353Z,14.60
2018-06-22T06:21:42.955Z,14.70
2018-06-22T06:24:10.493Z,14.70
2018-06-22T06:26:37.944Z,14.30
2018-06-22T06:29:05.405Z,14.60
2018-06-22T06:31:32.881Z,14.50
2018-06-22T06:34:00.367Z,14.40
2018-06-22T06:36:28.645Z,14.50
2018-06-22T06:38:56.147Z,14.50
2018-06-22T06:41:23.569Z,14.50
2018-06-22T06:43:51.047Z,14.40
2018-06-22T06:46:18.478Z,14.40
2018-06-22T06:48:45.984Z,14.40
2018-06-22T06:51:13.417Z,14.40
2018-06-22T06:53:40.867Z,14.40
2018-06-22T06:56:08.275Z,14.40
2018-06-22T07:01:03.203Z,14.50
2018-06-22T07:03:30.654Z,14.40
2018-06-22T07:05:58.081Z,14.50
2018-06-22T07:08:25.604Z,14.60
2018-06-22T07:10:53.003Z,14.50
2018-06-22T07:13:20.424Z,14.50
2018-06-22T07:15:47.906Z,14.50
2018-06-22T07:18:15.340Z,14.50
2018-06-22T07:20:42.828Z,14.60
2018-06-22T07:23:10.295Z,14.60
2018-06-22T07:25:37.757Z,14.60
2018-06-22T07:28:05.218Z,14.60
2018-06-22T07:30:32.696Z,14.70
2018-06-22T07:33:00.058Z,14.70
2018-06-22T07:35:27.560Z,14.80
2018-06-22T07:37:54.977Z,14.80
2018-06-22T07:40:22.491Z,14.80
2018-06-22T07:42:50.835Z,14.80
2018-06-22T07:45:18.338Z,14.80
2018-06-22T07:47:45.775Z,14.80
2018-06-22T07:50:13.183Z,14.90
2018-06-22T07:52:40.662Z,14.90
2018-06-22T07:55:08.222Z,14.90
2018-06-22T07:57:35.705Z,14.90
2018-06-22T08:00:03.872Z,14.90
2018-06-22T08:02:31.361Z,14.90
2018-06-22T08:04:58.943Z,14.90
2018-06-22T08:07:26.406Z,14.50
2018-06-22T08:09:53.861Z,14.90
2018-06-22T08:12:21.314Z,14.90
2018-06-22T08:14:48.737Z,14.90
2018-06-22T08:17:16.171Z,14.90
2018-06-22T08:19:43.909Z,14.90
2018-06-22T08:22:11.363Z,14.80
2018-06-22T08:24:38.793Z,14.80
2018-06-22T08:27:06.189Z,14.80
2018-06-22T08:29:33.697Z,14.80
2018-06-22T08:32:01.150Z,14.80
2018-06-22T08:34:28.661Z,14.80
2018-06-22T08:36:56.263Z,14.80
2018-06-22T08:39:24.158Z,14.90
2018-06-22T08:41:51.816Z,14.80
2018-06-22T08:44:19.027Z,14.90
2018-06-22T08:46:46.553Z,14.90
2018-06-22T08:49:13.964Z,15.00
2018-06-22T08:51:41.381Z,14.90
2018-06-22T08:54:09.121Z,14.90
2018-06-22T08:59:04.038Z,15.00
2018-06-22T09:01:31.485Z,15.00
2018-06-22T09:03:58.993Z,15.00
2018-06-22T09:06:26.640Z,15.00
2018-06-22T09:08:54.513Z,15.00
2018-06-22T09:11:22.152Z,15.10
2018-06-22T09:13:49.605Z,15.10
2018-06-22T09:16:17.082Z,15.20
2018-06-22T09:18:44.541Z,15.20
2018-06-22T09:21:12.011Z,15.10
2018-06-22T09:23:39.541Z,15.20
2018-06-22T09:26:07.014Z,15.20
2018-06-22T09:28:34.445Z,15.10
2018-06-22T09:31:01.902Z,15.20
2018-06-22T09:33:29.301Z,15.20
2018-06-22T09:35:56.798Z,15.20
2018-06-22T09:38:24.287Z,15.20
2018-06-22T09:40:51.843Z,15.10
2018-06-22T09:43:19.231Z,15.10
2018-06-22T09:45:46.717Z,15.10
2018-06-22T09:48:14.089Z,15.10
2018-06-22T09:53:08.934Z,15.10
2018-06-22T09:55:36.386Z,15.10
2018-06-22T09:58:03.960Z,15.10
2018-06-22T10:00:31.526Z,15.10
2018-06-22T10:02:58.975Z,15.20
2018-06-22T10:05:26.428Z,15.20
2018-06-22T10:07:53.881Z,15.30
2018-06-22T10:10:21.426Z,15.30
2018-06-22T10:12:48.940Z,15.40
2018-06-22T10:15:16.478Z,15.40
2018-06-22T10:17:43.914Z,15.40
2018-06-22T10:20:11.478Z,15.50
2018-06-22T10:22:39.457Z,15.60
2018-06-22T10:25:06.923Z,15.50
2018-06-22T10:27:34.370Z,15.50
2018-06-22T10:30:01.779Z,15.50
2018-06-22T10:32:29.278Z,15.60
2018-06-22T10:34:56.772Z,15.60
2018-06-22T10:37:24.162Z,15.70
2018-06-22T10:39:51.618Z,15.70
2018-06-22T10:42:19.178Z,15.70
2018-06-22T10:44:46.645Z,15.80
2018-06-22T10:47:14.135Z,15.80
2018-06-22T10:49:41.528Z,15.90
2018-06-22T10:52:09.153Z,15.90
2018-06-22T10:54:36.662Z,15.90
2018-06-22T10:57:04.714Z,15.90
2018-06-22T10:59:32.407Z,15.70
2018-06-22T11:01:59.908Z,15.60
2018-06-22T11:04:27.444Z,15.60
2018-06-22T11:06:55.314Z,15.60
2018-06-22T11:09:22.777Z,15.60
2018-06-22T11:11:50.193Z,15.60
2018-06-22T11:14:17.635Z,15.60
2018-06-22T11:16:45.130Z,15.70
2018-06-22T11:19:13.449Z,15.70
2018-06-22T11:21:40.936Z,15.70
2018-06-22T11:24:08.463Z,15.70
2018-06-22T11:26:35.949Z,15.70
2018-06-22T11:29:03.446Z,15.70
2018-06-22T11:31:30.906Z,15.80
2018-06-22T11:33:58.664Z,15.80
2018-06-22T11:36:26.298Z,15.80
2018-06-22T11:38:53.734Z,15.70
2018-06-22T11:41:21.257Z,15.70
2018-06-22T11:43:48.679Z,15.70
2018-06-22T11:46:16.148Z,15.70
2018-06-22T11:48:43.679Z,15.70
2018-06-22T11:51:11.167Z,15.80
2018-06-22T11:53:38.529Z,15.90
2018-06-22T11:56:06.201Z,15.90
2018-06-22T11:58:33.653Z,16.00
2018-06-22T12:01:01.298Z,16.00
2018-06-22T12:03:28.934Z,16.10
2018-06-22T12:05:56.420Z,16.10
2018-06-22T12:08:23.978Z,16.10
2018-06-22T12:10:51.522Z,16.10
2018-06-22T12:13:19.101Z,16.00
2018-06-22T12:15:46.615Z,15.90
2018-06-22T12:18:14.431Z,15.80
2018-06-22T12:20:41.904Z,15.80
2018-06-22T12:23:09.425Z,15.70
2018-06-22T12:25:37.122Z,15.70
2018-06-22T12:28:05.216Z,15.70
2018-06-22T12:30:32.728Z,15.70
2018-06-22T12:33:00.203Z,15.80
2018-06-22T12:35:27.667Z,15.80
2018-06-22T12:37:55.326Z,15.90
2018-06-22T12:40:22.838Z,15.90
2018-06-22T12:42:50.399Z,16.00
2018-06-22T12:45:17.842Z,16.10
2018-06-22T12:47:45.506Z,16.10
2018-06-22T12:50:12.977Z,16.10
2018-06-22T12:52:40.420Z,16.20
2018-06-22T12:55:07.865Z,16.10
2018-06-22T12:57:35.404Z,16.10
2018-06-22T13:00:02.863Z,16.10
2018-06-22T13:02:30.483Z,16.00
2018-06-22T13:04:57.935Z,16.00
2018-06-22T13:07:25.453Z,16.00
2018-06-22T13:09:52.886Z,16.00
2018-06-22T13:12:20.635Z,16.00
2018-06-22T13:14:48.141Z,16.10
2018-06-22T13:17:15.691Z,16.20
2018-06-22T13:19:43.112Z,16.30
2018-06-22T13:22:10.549Z,16.30
2018-06-22T13:24:37.953Z,16.40
2018-06-22T13:27:05.377Z,16.50
2018-06-22T13:32:00.298Z,16.60
2018-06-22T13:34:27.801Z,16.70
2018-06-22T13:36:55.215Z,16.70
2018-06-22T13:39:22.686Z,16.80
2018-06-22T13:41:50.236Z,16.80
2018-06-22T13:44:17.735Z,16.80
2018-06-22T13:46:45.378Z,16.80
2018-06-22T13:49:12.821Z,16.70
2018-06-22T13:51:40.310Z,16.70
2018-06-22T13:54:08.334Z,16.60
2018-06-22T13:56:36.275Z,16.60
2018-06-22T13:59:04.234Z,16.60
2018-06-22T14:01:32.921Z,16.60
2018-06-22T14:04:06.035Z,16.70
2018-06-22T14:06:39.116Z,16.70
2018-06-22T14:09:10.260Z,16.80
2018-06-22T14:11:38.003Z,16.80
2018-06-22T14:14:05.690Z,16.70
2018-06-22T14:16:33.246Z,16.70
2018-06-22T14:19:00.694Z,16.80
2018-06-22T14:21:28.299Z,16.90
2018-06-22T14:23:55.941Z,17.00
2018-06-22T14:26:23.479Z,17.00
2018-06-22T14:28:50.947Z,17.10
2018-06-22T14:31:18.432Z,17.20
2018-06-22T14:33:45.851Z,17.20
2018-06-22T14:36:13.398Z,17.30
2018-06-22T14:38:40.921Z,17.40
2018-06-22T14:41:08.462Z,17.50
2018-06-22T14:43:35.986Z,17.60
2018-06-22T14:46:03.681Z,17.70
2018-06-22T14:48:31.211Z,17.70
2018-06-22T14:50:58.749Z,17.70
2018-06-22T14:53:31.845Z,17.60
2018-06-22T14:56:05.099Z,17.60
2018-06-22T14:58:38.336Z,17.50
2018-06-22T15:01:11.838Z,17.50
2018-06-22T15:03:45.115Z,17.60
2018-06-22T15:07:22.198Z,17.50
2018-06-22T15:09:49.732Z,17.60
2018-06-22T15:12:17.198Z,17.70
2018-06-22T15:14:44.672Z,17.70
2018-06-22T15:17:12.970Z,17.90
2018-06-22T15:19:42.007Z,18.00
2018-06-22T15:22:10.695Z,18.10
2018-06-22T15:24:38.474Z,18.20
2018-06-22T15:27:06.397Z,18.10
2018-06-22T15:29:34.336Z,18.00
2018-06-22T15:32:02.716Z,17.90
2018-06-22T15:34:35.976Z,17.80
2018-06-22T15:37:09.191Z,17.70
2018-06-22T15:39:42.409Z,17.60
2018-06-22T15:42:15.439Z,17.50
2018-06-22T15:44:48.625Z,17.40
2018-06-22T15:47:22.115Z,17.30
2018-06-22T15:49:55.365Z,17.20
2018-06-22T15:52:28.794Z,17.20
2018-06-22T15:55:04.769Z,17.30
2018-06-22T15:57:32.795Z,17.30
2018-06-22T16:00:00.494Z,17.50
2018-06-22T16:02:33.983Z,17.60
2018-06-22T16:05:01.592Z,17.60
2018-06-22T16:07:29.517Z,17.60
2018-06-22T16:09:59.812Z,17.60
2018-06-22T16:12:36.661Z,17.50
2018-06-22T16:15:11.903Z,17.40
2018-06-22T16:17:45.318Z,17.30
2018-06-22T16:20:18.511Z,17.20
2018-06-22T16:22:52.018Z,17.10
2018-06-22T16:25:25.517Z,17.00
2018-06-22T16:27:55.912Z,17.00
2018-06-22T16:30:24.346Z,17.00
2018-06-22T16:32:52.127Z,17.10
2018-06-22T16:35:20.357Z,17.20
2018-06-22T16:37:48.009Z,17.30
2018-06-22T16:40:15.938Z,17.20
2018-06-22T16:42:43.385Z,17.30
2018-06-22T16:45:11.295Z,17.20
2018-06-22T16:47:39.033Z,17.20
2018-06-22T16:50:07.652Z,17.20
2018-06-22T16:52:35.144Z,17.10
2018-06-22T16:55:03.075Z,17.00
2018-06-22T16:57:30.751Z,17.00
2018-06-22T16:59:58.271Z,17.00
2018-06-22T17:02:26.075Z,17.00
2018-06-22T17:04:53.616Z,17.00
2018-06-22T17:07:26.756Z,17.00
2018-06-22T17:10:00.064Z,17.00
2018-06-22T17:12:33.141Z,17.00
2018-06-22T17:15:06.448Z,17.00
2018-06-22T17:17:39.632Z,17.00
2018-06-22T17:20:07.417Z,17.00
2018-06-22T17:22:34.871Z,17.10
2018-06-22T17:27:29.989Z,17.10
2018-06-22T17:29:57.568Z,17.10
2018-06-22T17:32:25.202Z,17.20
2018-06-22T17:34:52.833Z,17.30
2018-06-22T17:37:20.554Z,17.30
2018-06-22T17:39:48.035Z,17.30
2018-06-22T17:42:15.644Z,17.30
2018-06-22T17:44:43.116Z,17.30
2018-06-22T17:47:10.603Z,17.20
2018-06-22T17:49:38.102Z,17.20
2018-06-22T17:52:05.896Z,17.10
2018-06-22T17:54:33.322Z,17.10
2018-06-22T17:57:00.818Z,16.90
2018-06-22T17:59:33.911Z,16.90
2018-06-22T18:02:07.004Z,16.80
2018-06-22T18:04:38.134Z,16.90
2018-06-22T18:09:44.458Z,16.80
2018-06-22T18:12:17.950Z,16.80
2018-06-22T18:14:45.466Z,16.80
2018-06-22T18:17:13.002Z,16.80
2018-06-22T18:19:40.460Z,16.80
2018-06-22T18:22:08.481Z,16.80
2018-06-22T18:24:36.338Z,16.80
2018-06-22T18:27:04.174Z,16.70
2018-06-22T18:29:31.931Z,16.70
2018-06-22T18:31:59.492Z,16.70
2018-06-22T18:34:26.978Z,16.60
2018-06-22T18:36:54.510Z,16.60
2018-06-22T18:39:22.237Z,16.60
2018-06-22T18:41:49.743Z,16.70
2018-06-22T18:44:17.449Z,16.70
2018-06-22T18:46:45.484Z,16.60
2018-06-22T18:49:13.288Z,16.60
2018-06-22T18:51:41.164Z,16.60
2018-06-22T18:54:14.466Z,16.60
2018-06-22T18:56:47.835Z,16.60
2018-06-22T18:59:21.041Z,16.60
2018-06-22T19:06:50.295Z,16.60
2018-06-22T19:09:17.817Z,16.60
2018-06-22T19:11:45.358Z,16.60
2018-06-22T19:14:12.907Z,16.60
2018-06-22T19:16:40.761Z,16.50
2018-06-22T19:19:08.874Z,16.40
2018-06-22T19:21:36.696Z,16.40
2018-06-22T19:24:04.899Z,16.40
2018-06-22T19:26:32.534Z,16.30
2018-06-22T19:29:00.067Z,16.30
2018-06-22T19:31:27.738Z,16.30
2018-06-22T19:33:55.156Z,16.30
2018-06-22T19:36:22.841Z,16.20
2018-06-22T19:41:17.973Z,16.10
2018-06-22T19:43:51.314Z,16.10
2018-06-22T19:46:24.574Z,16.00
2018-06-22T19:48:57.789Z,16.00
2018-06-22T19:51:30.990Z,16.00
2018-06-22T19:54:02.685Z,16.00
2018-06-22T19:56:30.481Z,16.10
2018-06-22T19:58:58.338Z,16.00
2018-06-22T20:01:25.943Z,16.10
2018-06-22T20:03:53.525Z,16.10
2018-06-22T20:06:21.223Z,16.10
2018-06-22T20:08:48.937Z,16.10
2018-06-22T20:11:16.614Z,16.10
2018-06-22T20:13:44.997Z,16.00
2018-06-22T20:16:12.883Z,16.00
2018-06-22T20:18:40.505Z,16.10
2018-06-22T20:21:09.053Z,16.00
2018-06-22T20:23:36.598Z,16.00
2018-06-22T20:26:04.489Z,16.00
2018-06-22T20:28:32.157Z,16.00
2018-06-22T20:30:59.517Z,15.90
2018-06-22T20:33:27.021Z,16.00
2018-06-22T20:36:00.135Z,15.90
2018-06-22T20:38:33.346Z,15.90
2018-06-22T20:41:06.702Z,15.90
2018-06-22T20:43:39.882Z,15.90
2018-06-22T20:46:07.486Z,15.90
2018-06-22T20:48:40.694Z,15.80
2018-06-22T20:51:08.173Z,15.90
2018-06-22T20:53:35.657Z,15.80
2018-06-22T20:56:03.157Z,15.80
2018-06-22T20:58:30.614Z,15.80
2018-06-22T21:00:58.226Z,15.70
2018-06-22T21:03:25.855Z,15.70
2018-06-22T21:05:53.322Z,15.70
2018-06-22T21:08:21.014Z,15.60
2018-06-22T21:10:48.470Z,15.60
2018-06-22T21:13:15.978Z,15.60
2018-06-22T21:15:43.485Z,15.70
2018-06-22T21:18:10.957Z,15.70
2018-06-22T21:20:43.046Z,15.70
2018-06-22T21:23:10.545Z,15.70
2018-06-22T21:25:38.038Z,15.70
2018-06-22T21:30:44.383Z,15.70
2018-06-22T21:33:17.607Z,15.70
2018-06-22T21:35:50.830Z,15.70
2018-06-22T21:38:24.059Z,15.70
2018-06-22T21:40:51.501Z,15.60
2018-06-22T21:43:18.994Z,15.60
2018-06-22T21:45:46.510Z,15.60
2018-06-22T21:48:14.360Z,15.60
2018-06-22T21:50:41.877Z,15.60
2018-06-22T21:53:09.355Z,15.60
2018-06-22T21:55:36.835Z,15.60
2018-06-22T21:58:04.914Z,15.60
2018-06-22T22:00:33.531Z,15.60
2018-06-22T22:03:01.500Z,15.60
2018-06-22T22:05:29.632Z,15.50
2018-06-22T22:07:57.105Z,15.50
2018-06-22T22:11:30.210Z,15.50
2018-06-22T22:13:57.698Z,15.50
2018-06-22T22:16:25.155Z,15.40
2018-06-22T22:18:52.734Z,15.40
2018-06-22T22:21:20.296Z,15.50
2018-06-22T22:23:47.691Z,15.50
2018-06-22T22:26:15.176Z,15.50
2018-06-22T22:28:42.733Z,15.40
2018-06-22T22:31:10.154Z,15.40
2018-06-22T22:33:37.606Z,15.40
2018-06-22T22:36:05.238Z,15.40
2018-06-22T22:38:32.678Z,15.40
2018-06-22T22:41:00.085Z,15.40
2018-06-22T22:43:27.538Z,15.40
2018-06-22T22:45:54.953Z,15.40
2018-06-22T22:48:22.497Z,15.30
2018-06-22T22:50:50.023Z,15.30
2018-06-22T22:53:17.721Z,15.30
2018-06-22T22:55:45.218Z,15.20
2018-06-22T22:58:12.795Z,15.30
2018-06-22T23:00:40.245Z,15.20
2018-06-22T23:03:07.768Z,15.20
2018-06-22T23:05:35.254Z,15.20
2018-06-22T23:08:02.872Z,15.20
2018-06-22T23:10:30.385Z,15.20
2018-06-22T23:12:57.885Z,15.10
2018-06-22T23:15:25.338Z,15.00
2018-06-22T23:17:52.749Z,15.10
2018-06-22T23:20:20.279Z,15.00
2018-06-22T23:22:59.277Z,14.90
2018-06-22T23:25:26.731Z,14.90
2018-06-22T23:27:54.210Z,14.90
2018-06-22T23:32:49.165Z,14.90
2018-06-22T23:35:21.373Z,14.80
2018-06-22T23:37:48.851Z,14.90
2018-06-22T23:40:16.367Z,14.90
2018-06-22T23:42:43.844Z,14.90
2018-06-22T23:45:11.317Z,14.90
2018-06-22T23:47:38.798Z,14.90
2018-06-22T23:50:06.288Z,14.90
2018-06-22T23:52:33.782Z,14.90
2018-06-22T23:55:01.320Z,14.90
2018-06-22T23:57:28.734Z,14.90
2018-06-22T23:59:56.161Z,14.90
